Time;durP1;ratioP1;P1;durP2;ratioP2;P2;SDS_P1;SDS_P2;PMS_P1;PMS_P2;Temp;Humidity;BMP_temperature;BMP_pressure;BME280_temperature;BME280_humidity;BME280_pressure;Samples;Min_cycle;Max_cycle;Signal;HPM_P1;HPM_P2
2021/05/26 00:01:02;;;;;;;29.42;20.80;;;;;;;9.32;100.00;100768.00;4987455;28;20042;-81
2021/05/26 00:03:28;;;;;;;28.25;18.40;;;;;;;9.29;100.00;100766.47;4985448;28;20050;-82
2021/05/26 00:05:54;;;;;;;26.20;17.52;;;;;;;9.29;100.00;100762.97;4970516;28;20050;-81
2021/05/26 00:08:32;;;;;;;33.15;19.90;;;;;;;9.29;100.00;100760.28;4983201;28;20045;-81
2021/05/26 00:11:03;;;;;;;29.23;20.87;;;;;;;9.28;100.00;100751.41;4963689;28;20566;-81
2021/05/26 00:13:39;;;;;;;28.88;20.50;;;;;;;9.23;100.00;100751.88;4986311;28;20133;-81
2021/05/26 00:16:06;;;;;;;25.00;17.70;;;;;;;9.20;100.00;100754.88;4968229;28;20047;-81
2021/05/26 00:18:33;;;;;;;30.95;19.45;;;;;;;9.24;100.00;100753.56;4982976;28;20042;-81
2021/05/26 00:21:00;;;;;;;24.98;17.77;;;;;;;9.22;100.00;100747.53;4983237;28;20041;-82
2021/05/26 00:23:31;;;;;;;28.08;17.15;;;;;;;9.23;100.00;100759.06;4983182;28;20050;-81
2021/05/26 00:25:58;;;;;;;28.02;17.20;;;;;;;9.19;100.00;100747.84;4985757;28;20034;-82
2021/05/26 00:28:23;;;;;;;24.85;18.65;;;;;;;9.19;100.00;100747.84;4985462;28;20108;-82
2021/05/26 00:30:51;;;;;;;28.90;18.73;;;;;;;9.18;100.00;100746.16;4980209;28;20049;-81
2021/05/26 00:33:23;;;;;;;31.15;18.88;;;;;;;9.17;100.00;100749.81;4985077;28;20050;-81
2021/05/26 00:35:50;;;;;;;27.48;18.25;;;;;;;9.14;100.00;100742.09;4984673;28;20766;-81
2021/05/26 00:38:17;;;;;;;31.40;17.30;;;;;;;9.10;100.00;100734.56;4985932;28;20050;-81
2021/05/26 00:40:44;;;;;;;27.35;17.40;;;;;;;9.07;100.00;100740.22;4968740;28;20041;-82
2021/05/26 00:43:11;;;;;;;30.92;17.92;;;;;;;9.09;100.00;100730.19;4968694;28;20082;-81
2021/05/26 00:45:38;;;;;;;30.30;17.25;;;;;;;9.02;100.00;100725.47;4969180;28;20081;-81
2021/05/26 00:48:04;;;;;;;30.33;15.55;;;;;;;8.94;100.00;100727.25;4985312;28;20046;-81
2021/05/26 00:50:34;;;;;;;28.65;16.50;;;;;;;8.94;100.00;100724.56;4969437;28;20035;-81
2021/05/26 00:53:06;;;;;;;28.52;16.10;;;;;;;8.88;100.00;100728.69;4969991;28;20074;-81
2021/05/26 00:55:33;;;;;;;24.13;16.27;;;;;;;8.85;100.00;100717.47;4972424;28;20125;-81
2021/05/26 00:58:00;;;;;;;24.00;15.02;;;;;;;8.82;100.00;100724.78;4986775;28;20582;-81
2021/05/26 01:00:33;;;;;;;21.77;15.60;;;;;;;8.79;100.00;100724.28;4986703;28;20054;-81
2021/05/26 01:03:00;;;;;;;25.45;15.48;;;;;;;8.76;100.00;100724.59;4965644;28;20038;-81
2021/05/26 01:05:27;;;;;;;21.73;14.38;;;;;;;8.73;100.00;100715.03;4985999;28;20042;-81
2021/05/26 01:07:53;;;;;;;22.85;15.35;;;;;;;8.73;100.00;100714.19;4973808;28;20038;-81
2021/05/26 01:10:27;;;;;;;19.80;13.30;;;;;;;8.70;100.00;100712.66;4982680;28;20050;-82
2021/05/26 01:12:55;;;;;;;23.90;13.57;;;;;;;8.68;100.00;100701.25;4984646;28;20042;-81
2021/05/26 01:15:23;;;;;;;20.88;12.52;;;;;;;8.68;100.00;100700.44;4972187;28;20121;-81
2021/05/26 01:18:23;;;;;;;20.98;12.93;;;;;;;8.66;100.00;100697.94;4974163;28;20565;-82
2021/05/26 01:20:59;;;;;;;23.95;13.18;;;;;;;8.65;100.00;100698.91;4962686;28;20087;-81
2021/05/26 01:23:25;;;;;;;18.85;11.93;;;;;;;8.65;100.00;100700.75;4966395;28;20129;-81
2021/05/26 01:25:54;;;;;;;22.50;11.38;;;;;;;8.66;100.00;100689.03;4968597;28;20077;-81
2021/05/26 01:28:20;;;;;;;24.08;11.95;;;;;;;8.63;100.00;100692.88;4964092;28;20105;-81
2021/05/26 01:30:46;;;;;;;19.05;10.63;;;;;;;8.65;100.00;100685.53;4975885;28;20047;-81
2021/05/26 01:33:13;;;;;;;18.70;10.98;;;;;;;8.68;100.00;100689.72;4985709;28;20054;-81
2021/05/26 01:35:43;;;;;;;11.88;9.25;;;;;;;8.63;100.00;100692.88;4970270;28;20094;-81
2021/05/26 01:38:21;;;;;;;18.63;9.30;;;;;;;8.63;100.00;100692.88;4992587;28;20074;-81
2021/05/26 01:40:47;;;;;;;18.08;7.85;;;;;;;8.63;100.00;100684.88;4980437;28;20042;-81
2021/05/26 01:43:14;;;;;;;13.00;7.30;;;;;;;8.64;100.00;100683.84;4976472;28;20126;-81
2021/05/26 01:45:41;;;;;;;15.98;8.18;;;;;;;8.66;100.00;100679.19;4984231;28;20046;-81
2021/05/26 01:48:07;;;;;;;15.32;8.23;;;;;;;8.65;100.00;100677.50;4979585;28;20105;-81
2021/05/26 01:50:34;;;;;;;16.27;8.90;;;;;;;8.65;100.00;100674.81;4985222;28;20042;-82
2021/05/26 01:53:05;;;;;;;16.38;8.00;;;;;;;8.58;100.00;100679.13;4988880;28;20034;-81
2021/05/26 01:55:32;;;;;;;18.70;9.10;;;;;;;8.62;100.00;100677.81;4973398;28;20038;-81
2021/05/26 01:58:00;;;;;;;12.80;8.02;;;;;;;8.56;100.00;100670.41;4963778;28;20483;-81
2021/05/26 02:00:27;;;;;;;12.85;7.60;;;;;;;8.59;100.00;100680.78;4989667;28;20476;-81
2021/05/26 02:02:53;;;;;;;11.88;6.97;;;;;;;8.58;100.00;100673.78;4973980;28;20034;-81
2021/05/26 02:05:19;;;;;;;13.73;7.50;;;;;;;8.53;100.00;100676.06;4987545;28;20042;-81
2021/05/26 02:07:47;;;;;;;17.30;7.68;;;;;;;8.59;100.00;100670.09;4976436;28;20050;-81
2021/05/26 02:10:15;;;;;;;11.63;6.60;;;;;;;8.54;100.00;100675.91;4955932;28;20051;-81
2021/05/26 02:12:43;;;;;;;11.32;5.95;;;;;;;8.55;100.00;100671.41;4971307;28;20117;-81
2021/05/26 02:15:11;;;;;;;8.52;4.78;;;;;;;8.56;99.43;100671.25;4990307;28;20100;-82
2021/05/26 02:17:47;;;;;;;11.23;4.85;;;;;;;8.57;98.55;100672.06;4990441;28;20043;-82
2021/05/26 02:20:13;;;;;;;5.93;3.85;;;;;;;8.56;97.80;100663.22;4970915;28;20066;-81
2021/05/26 02:22:40;;;;;;;5.50;3.28;;;;;;;8.54;96.83;100667.03;4974047;28;20081;-81
2021/05/26 02:25:06;;;;;;;4.85;2.67;;;;;;;8.51;96.68;100662.84;4987774;28;20050;-81
2021/05/26 02:27:32;;;;;;;5.03;2.75;;;;;;;8.52;96.73;100659.19;4983860;28;20042;-81
2021/05/26 02:29:57;;;;;;;4.63;3.00;;;;;;;8.55;96.94;100664.22;4989779;28;20149;-82
2021/05/26 02:32:24;;;;;;;6.43;3.13;;;;;;;8.53;97.37;100654.66;4990255;28;20039;-80
2021/05/26 02:35:05;;;;;;;7.85;3.67;;;;;;;8.52;97.49;100659.19;4987708;28;20038;-81
2021/05/26 02:37:31;;;;;;;5.60;2.83;;;;;;;8.45;97.81;100654.59;4967952;28;20399;-81
2021/05/26 02:40:03;;;;;;;7.07;3.30;;;;;;;8.50;97.92;100671.03;4984084;28;20136;-81
2021/05/26 02:42:32;;;;;;;5.80;3.90;;;;;;;8.49;98.20;100664.84;4983687;28;20073;-81
2021/05/26 02:45:02;;;;;;;6.80;3.30;;;;;;;8.43;98.59;100667.28;4980349;28;20053;-82
2021/05/26 02:47:28;;;;;;;8.00;3.38;;;;;;;8.39;99.13;100661.41;4977739;28;20126;-82
2021/05/26 02:49:55;;;;;;;5.80;3.65;;;;;;;8.41;99.64;100658.59;4989357;28;20137;-81
2021/05/26 02:52:20;;;;;;;6.47;3.33;;;;;;;8.39;99.64;100648.03;4953373;28;20059;-81
2021/05/26 02:54:55;;;;;;;6.25;3.95;;;;;;;8.39;99.87;100652.53;4969334;28;20044;-82
2021/05/26 02:57:21;;;;;;;7.38;3.22;;;;;;;8.34;99.91;100659.16;4983636;28;20054;-81
2021/05/26 02:59:48;;;;;;;5.55;3.85;;;;;;;8.35;100.00;100650.13;4985559;28;20045;-81
2021/05/26 03:02:20;;;;;;;5.38;4.03;;;;;;;8.33;100.00;100660.13;4988376;28;20050;-81
2021/05/26 03:04:45;;;;;;;6.70;3.85;;;;;;;8.32;100.00;100642.44;4978257;28;20061;-81
2021/05/26 03:07:19;;;;;;;4.70;3.80;;;;;;;8.31;100.00;100632.72;4986565;28;20043;-81
2021/05/26 03:09:54;;;;;;;9.23;4.75;;;;;;;8.22;100.00;100644.31;4960755;28;20512;-81
2021/05/26 03:12:22;;;;;;;7.82;4.50;;;;;;;8.24;100.00;100642.34;4970691;28;20042;-81
2021/05/26 03:14:47;;;;;;;7.27;3.90;;;;;;;8.27;100.00;100639.38;4957709;28;20031;-82
2021/05/26 03:17:20;;;;;;;8.85;4.30;;;;;;;8.25;100.00;100630.66;4987225;28;20042;-81
2021/05/26 03:19:45;;;;;;;7.05;4.18;;;;;;;8.28;100.00;100642.88;4982414;28;20080;-82
2021/05/26 03:22:11;;;;;;;7.68;4.75;;;;;;;8.30;100.00;100635.56;4969097;28;20070;-81
2021/05/26 03:24:36;;;;;;;7.28;4.82;;;;;;;8.29;100.00;100641.91;4985777;28;20052;-81
2021/05/26 03:27:02;;;;;;;8.75;5.43;;;;;;;8.32;100.00;100646.94;4984341;28;20046;-82
2021/05/26 03:29:28;;;;;;;9.77;5.63;;;;;;;8.27;100.00;100634.03;4970471;28;20034;-81
2021/05/26 03:31:55;;;;;;;9.18;5.80;;;;;;;8.29;100.00;100637.38;4984940;28;20114;-81
2021/05/26 03:34:22;;;;;;;9.25;6.72;;;;;;;8.32;100.00;100646.94;4978718;28;20050;-82
2021/05/26 03:36:50;;;;;;;10.77;6.45;;;;;;;8.29;100.00;100648.09;4969670;28;20456;-82
2021/05/26 03:39:15;;;;;;;11.27;7.00;;;;;;;8.31;100.00;100637.22;4990997;28;20035;-81
2021/05/26 03:41:42;;;;;;;12.52;7.60;;;;;;;8.32;100.00;100639.75;4986191;28;20140;-82
2021/05/26 03:44:08;;;;;;;11.75;8.18;;;;;;;8.38;100.00;100646.31;4984686;28;20046;-81
2021/05/26 03:46:40;;;;;;;12.35;7.57;;;;;;;8.33;100.00;100641.44;4984822;28;20077;-82
2021/05/26 03:49:05;;;;;;;15.23;8.90;;;;;;;8.39;100.00;100645.34;4984951;28;20046;-82
2021/05/26 03:51:31;;;;;;;13.40;8.48;;;;;;;8.39;100.00;100647.19;4966550;28;20110;-82
2021/05/26 03:53:58;;;;;;;15.68;8.65;;;;;;;8.36;100.00;100643.78;4979727;28;20046;-82
2021/05/26 03:56:23;;;;;;;13.77;8.85;;;;;;;8.43;100.00;100637.84;4971560;28;20054;-81
2021/05/26 03:58:49;;;;;;;16.85;10.38;;;;;;;8.43;100.00;100643.19;4999746;28;20117;-82
2021/05/26 04:01:14;;;;;;;14.75;10.73;;;;;;;8.42;100.00;100636.19;4984538;28;20047;-82
2021/05/26 04:03:40;;;;;;;16.60;11.15;;;;;;;8.44;100.00;100628.84;4987796;28;20046;-82
2021/05/26 04:06:05;;;;;;;16.55;11.60;;;;;;;8.45;100.00;100627.84;4984376;28;20116;-82
2021/05/26 04:08:33;;;;;;;15.13;11.88;;;;;;;8.44;100.00;100626.19;4984523;28;20050;-81
2021/05/26 04:11:00;;;;;;;15.85;12.13;;;;;;;8.42;100.00;100631.66;4968855;28;20065;-82
2021/05/26 04:13:26;;;;;;;19.52;11.95;;;;;;;8.46;100.00;100629.53;4982114;28;20050;-82
2021/05/26 04:15:51;;;;;;;21.77;13.20;;;;;;;8.49;100.00;100645.28;4984602;28;20065;-81
2021/05/26 04:18:16;;;;;;;24.98;13.18;;;;;;;8.45;100.00;100635.88;4992332;28;20170;-80
2021/05/26 04:20:42;;;;;;;23.45;14.77;;;;;;;8.47;100.00;100629.38;4985008;28;20491;-81
2021/05/26 04:23:07;;;;;;;28.75;17.40;;;;;;;8.49;100.00;100626.56;4988296;28;20045;-82
2021/05/26 04:25:34;;;;;;;30.48;17.33;;;;;;;8.48;100.00;100628.38;4970052;28;20050;-82
2021/05/26 04:28:05;;;;;;;27.63;16.55;;;;;;;8.48;100.00;100614.16;4967507;28;20114;-81
2021/05/26 04:30:30;;;;;;;25.77;16.45;;;;;;;8.44;100.00;100624.34;4983150;28;20043;-81
2021/05/26 04:32:57;;;;;;;28.52;17.35;;;;;;;8.50;100.00;100622.88;4970879;28;20679;-82
2021/05/26 04:35:24;;;;;;;30.63;18.35;;;;;;;8.50;100.00;100618.38;4983777;28;20057;-82
2021/05/26 04:37:49;;;;;;;29.25;19.25;;;;;;;8.51;100.00;100624.56;4966719;28;20495;-83
2021/05/26 04:40:15;;;;;;;33.38;18.15;;;;;;;8.51;100.00;100621.88;4965067;28;20101;-82
2021/05/26 04:42:40;;;;;;;28.35;18.27;;;;;;;8.56;100.00;100638.31;4965929;28;20067;-81
2021/05/26 04:45:06;;;;;;;35.05;19.92;;;;;;;8.57;100.00;100634.63;4986944;28;20406;-81
2021/05/26 04:47:32;;;;;;;34.83;21.60;;;;;;;8.59;100.00;100628.13;4971759;28;20042;-82
2021/05/26 04:49:59;;;;;;;36.00;19.95;;;;;;;8.57;100.00;100618.59;4950670;28;20458;-82
2021/05/26 04:52:24;;;;;;;28.40;17.58;;;;;;;8.51;100.00;100635.25;4970482;28;20054;-82
2021/05/26 04:54:49;;;;;;;32.25;18.27;;;;;;;8.52;100.00;100629.75;4960199;28;20050;-82
2021/05/26 04:57:15;;;;;;;30.75;18.77;;;;;;;8.55;100.00;100636.66;4980603;28;20077;-80
2021/05/26 04:59:40;;;;;;;29.48;18.40;;;;;;;8.51;100.00;100629.91;4966766;28;20046;-81
2021/05/26 05:02:06;;;;;;;31.65;18.23;;;;;;;8.53;100.00;100623.41;4985989;28;20133;-82
2021/05/26 05:04:33;;;;;;;32.70;22.23;;;;;;;8.55;100.00;100625.94;4969644;28;20062;-81
2021/05/26 05:07:00;;;;;;;31.73;21.05;;;;;;;8.57;100.00;100630.16;4963429;28;20039;-82
2021/05/26 05:09:26;;;;;;;40.45;22.63;;;;;;;8.58;100.00;100621.13;4984258;28;20047;-82
2021/05/26 05:11:52;;;;;;;39.58;20.40;;;;;;;8.59;100.00;100624.63;4985077;28;20051;-82
2021/05/26 05:14:19;;;;;;;36.28;21.33;;;;;;;8.59;100.00;100622.78;4986731;28;20061;-81
2021/05/26 05:16:45;;;;;;;36.55;21.35;;;;;;;8.56;100.00;100614.25;4974331;28;20945;-81
2021/05/26 05:19:25;;;;;;;36.53;19.88;;;;;;;8.54;100.00;100611.72;4968874;28;20056;-82
2021/05/26 05:21:51;;;;;;;32.33;19.25;;;;;;;8.55;100.00;100608.06;4955285;28;20051;-82
2021/05/26 05:24:18;;;;;;;34.97;19.88;;;;;;;8.61;100.00;100611.94;4964886;28;20048;-82
2021/05/26 05:26:46;;;;;;;28.42;17.35;;;;;;;8.62;100.00;100608.25;4971097;28;20072;-82
2021/05/26 05:29:13;;;;;;;25.25;16.02;;;;;;;8.60;100.00;100612.91;4972812;28;20045;-81
2021/05/26 05:31:39;;;;;;;27.67;17.60;;;;;;;8.60;100.00;100607.56;4988108;28;20093;-83
2021/05/26 05:34:05;;;;;;;28.00;15.18;;;;;;;8.63;100.00;100599.25;4995937;28;20056;-83
2021/05/26 05:36:31;;;;;;;26.33;15.82;;;;;;;8.70;100.00;100608.31;4955366;28;20050;-82
2021/05/26 05:38:58;;;;;;;30.73;15.20;;;;;;;8.69;100.00;100609.34;4960789;28;20365;-81
2021/05/26 05:41:23;;;;;;;23.80;15.65;;;;;;;8.74;100.00;100603.50;4987812;28;20167;-82
2021/05/26 05:43:49;;;;;;;26.75;13.60;;;;;;;8.74;100.00;100604.31;4971726;28;20049;-82
2021/05/26 05:46:15;;;;;;;28.55;13.48;;;;;;;8.80;100.00;100605.53;4992050;28;20050;-82
2021/05/26 05:48:41;;;;;;;24.58;13.20;;;;;;;8.83;100.00;100602.53;4982950;28;20039;-82
2021/05/26 05:51:06;;;;;;;20.25;13.02;;;;;;;8.85;100.00;100603.25;4967465;28;20621;-82
2021/05/26 05:53:32;;;;;;;22.73;12.00;;;;;;;8.88;100.00;100602.09;4963805;28;20149;-83
2021/05/26 05:56:04;;;;;;;25.45;11.20;;;;;;;8.88;100.00;100600.25;4987941;28;20046;-82
2021/05/26 05:58:31;;;;;;;20.67;11.48;;;;;;;8.98;100.00;100602.84;4955888;28;20679;-82
2021/05/26 06:00:56;;;;;;;20.23;11.75;;;;;;;9.02;100.00;100604.19;4971001;28;20057;-81
2021/05/26 06:03:21;;;;;;;19.58;10.20;;;;;;;9.01;100.00;100606.03;4969664;28;20046;-82
2021/05/26 06:05:48;;;;;;;20.52;8.82;;;;;;;9.02;100.00;100606.84;4954829;28;20026;-81
2021/05/26 06:08:19;;;;;;;19.08;9.20;;;;;;;9.08;100.00;100611.56;4974724;28;20046;-81
2021/05/26 06:10:44;;;;;;;17.52;8.25;;;;;;;9.08;100.00;100608.88;4969139;28;20824;-81
2021/05/26 06:13:13;;;;;;;17.35;9.40;;;;;;;9.12;100.00;100599.56;4967042;28;20051;-80
2021/05/26 06:15:38;;;;;;;21.15;9.38;;;;;;;9.12;100.00;100590.66;4987155;28;20049;-81
2021/05/26 06:18:04;;;;;;;16.30;7.70;;;;;;;9.14;100.00;100592.19;4984292;28;20060;-81
2021/05/26 06:20:31;;;;;;;17.17;7.72;;;;;;;9.16;100.00;100600.06;4972778;28;20038;-81
2021/05/26 06:22:57;;;;;;;16.17;8.30;;;;;;;9.22;100.00;100594.91;4970340;28;20407;-82
2021/05/26 06:25:22;;;;;;;19.25;8.13;;;;;;;9.26;100.00;100590.94;4988828;28;20046;-80
2021/05/26 06:27:48;;;;;;;17.92;7.72;;;;;;;9.32;100.00;100588.59;4976786;28;20046;-81
2021/05/26 06:30:14;;;;;;;14.65;8.30;;;;;;;9.39;100.00;100582.44;4972306;28;20395;-82
2021/05/26 06:32:49;;;;;;;18.63;7.47;;;;;;;9.41;100.00;100584.97;4970727;28;20043;-82
2021/05/26 06:35:15;;;;;;;20.95;9.27;;;;;;;9.44;100.00;100580.13;4975874;28;20423;-80
2021/05/26 06:37:42;;;;;;;14.45;8.02;;;;;;;9.48;100.00;100572.59;4986553;28;20039;-81
2021/05/26 06:40:07;;;;;;;15.63;8.93;;;;;;;9.49;100.00;100579.59;4989057;28;20054;-81
2021/05/26 06:42:33;;;;;;;15.20;7.75;;;;;;;9.49;100.00;100588.50;4969270;28;20574;-81
2021/05/26 06:44:58;;;;;;;17.08;7.82;;;;;;;9.47;100.00;100581.63;4973776;28;20053;-81
2021/05/26 06:47:24;;;;;;;17.80;7.47;;;;;;;9.52;100.00;100581.13;4986658;28;20045;-80
2021/05/26 06:49:50;;;;;;;11.88;7.40;;;;;;;9.54;100.00;100569.25;4971211;28;20072;-81
2021/05/26 06:52:21;;;;;;;19.27;8.13;;;;;;;9.55;100.00;100562.91;4971140;28;20049;-81
2021/05/26 06:54:46;;;;;;;13.73;7.82;;;;;;;9.56;100.00;100580.66;4988106;28;20054;-81
2021/05/26 06:57:12;;;;;;;14.65;7.70;;;;;;;9.62;100.00;100565.78;4984354;28;20042;-81
2021/05/26 06:59:39;;;;;;;13.40;7.60;;;;;;;9.66;100.00;100564.44;4982989;28;20038;-81
2021/05/26 07:02:04;;;;;;;17.83;6.43;;;;;;;9.75;100.00;100566.13;4984343;28;20054;-81
2021/05/26 07:04:30;;;;;;;13.38;6.20;;;;;;;9.83;100.00;100560.78;4982501;28;20725;-81
2021/05/26 07:06:56;;;;;;;10.55;6.38;;;;;;;9.92;99.50;100572.34;4967220;28;20047;-82
2021/05/26 07:09:23;;;;;;;14.57;6.93;;;;;;;9.95;98.40;100561.28;4970060;28;20034;-81
2021/05/26 07:11:50;;;;;;;14.23;6.45;;;;;;;10.03;98.79;100576.56;4970691;28;20046;-81
2021/05/26 07:14:16;;;;;;;12.82;6.32;;;;;;;10.12;98.79;100567.50;4956720;28;20042;-81
2021/05/26 07:16:42;;;;;;;16.30;7.22;;;;;;;10.09;97.82;100582.09;4987980;28;20100;-82
2021/05/26 07:19:07;;;;;;;8.85;5.78;;;;;;;10.09;96.93;100571.38;4973468;28;20038;-81
2021/05/26 07:21:33;;;;;;;11.95;6.93;;;;;;;10.12;96.20;100579.06;4984756;28;20057;-81
2021/05/26 07:23:59;;;;;;;11.13;6.90;;;;;;;10.16;95.29;100579.59;4974755;28;20042;-81
2021/05/26 07:26:24;;;;;;;12.85;7.53;;;;;;;10.15;95.15;100577.91;4994666;28;20494;-81
2021/05/26 07:28:50;;;;;;;13.77;7.78;;;;;;;10.15;95.19;100557.28;4966051;28;20037;-81
2021/05/26 07:31:16;;;;;;;14.80;7.90;;;;;;;10.17;95.42;100566.00;4982151;28;20042;-82
2021/05/26 07:33:42;;;;;;;18.67;8.10;;;;;;;10.25;95.57;100575.06;4981979;28;20125;-81
2021/05/26 07:36:07;;;;;;;17.13;9.07;;;;;;;10.31;94.69;100569.06;4971448;28;20394;-81
2021/05/26 07:38:35;;;;;;;13.57;8.25;;;;;;;10.37;95.47;100565.72;4956598;28;20444;-81
2021/05/26 07:41:00;;;;;;;17.55;9.48;;;;;;;10.44;94.78;100549.78;4949788;28;20039;-81
2021/05/26 07:43:28;;;;;;;13.07;9.05;;;;;;;10.47;94.24;100566.38;4979575;28;20487;-81
2021/05/26 07:45:53;;;;;;;12.82;8.10;;;;;;;10.52;93.25;100557.81;4983312;28;20121;-82
2021/05/26 07:48:19;;;;;;;12.70;8.82;;;;;;;10.56;93.59;100560.00;4975804;28;20189;-81
2021/05/26 07:50:45;;;;;;;14.55;8.57;;;;;;;10.62;92.74;100553.13;4970233;28;20516;-82
2021/05/26 07:53:10;;;;;;;16.25;8.27;;;;;;;10.70;92.59;100549.56;4982856;28;20053;-81
2021/05/26 07:55:36;;;;;;;12.27;6.97;;;;;;;10.78;91.17;100531.59;4985458;28;20043;-81
2021/05/26 07:58:01;;;;;;;9.45;7.10;;;;;;;10.87;90.99;100543.16;4975335;28;20046;-81
2021/05/26 08:00:27;;;;;;;12.40;7.43;;;;;;;11.03;90.96;100553.00;4959367;28;20042;-81
2021/05/26 08:02:53;;;;;;;10.95;6.50;;;;;;;11.07;89.42;100535.53;4970748;28;20066;-81
2021/05/26 08:05:21;;;;;;;13.77;7.65;;;;;;;11.17;89.59;100535.34;4970850;28;20133;-81
2021/05/26 08:07:48;;;;;;;11.27;6.55;;;;;;;11.30;89.45;100546.34;4982532;28;20034;-82
2021/05/26 08:10:15;;;;;;;10.63;6.20;;;;;;;11.33;87.38;100546.00;4968791;28;20047;-81
2021/05/26 08:12:46;;;;;;;13.45;7.40;;;;;;;11.39;87.52;100547.97;4986384;28;20047;-82
2021/05/26 08:15:13;;;;;;;14.20;7.25;;;;;;;11.46;87.13;100554.34;4986049;28;20049;-81
2021/05/26 08:17:39;;;;;;;11.85;6.97;;;;;;;11.47;86.64;100556.00;4969741;28;20120;-81
2021/05/26 08:20:06;;;;;;;11.40;6.70;;;;;;;11.47;86.11;100557.84;4970757;28;20080;-82
2021/05/26 08:22:34;;;;;;;10.32;7.78;;;;;;;11.47;84.96;100547.94;4970207;28;20069;-82
2021/05/26 08:24:59;;;;;;;12.65;7.55;;;;;;;11.48;84.87;100541.56;4972300;28;20046;-82
2021/05/26 08:27:25;;;;;;;14.32;8.35;;;;;;;11.49;85.37;100558.53;4955315;28;20081;-81
2021/05/26 08:29:56;;;;;;;11.07;7.18;;;;;;;11.45;83.74;100547.28;4966001;28;20085;-82
2021/05/26 08:32:22;;;;;;;14.35;8.13;;;;;;;11.58;85.94;100552.09;4971426;28;20046;-81
2021/05/26 08:34:49;;;;;;;12.43;7.88;;;;;;;11.66;84.12;100527.84;4954413;28;20100;-82
2021/05/26 08:37:15;;;;;;;10.48;7.75;;;;;;;11.68;85.13;100543.78;4991327;28;20034;-81
2021/05/26 08:39:41;;;;;;;12.10;6.82;;;;;;;11.79;83.82;100545.25;4959368;28;20035;-81
2021/05/26 08:42:06;;;;;;;11.55;7.50;;;;;;;11.82;83.12;100544.88;4980827;28;20377;-81
2021/05/26 08:44:32;;;;;;;10.88;7.28;;;;;;;11.84;83.46;100542.84;4954113;28;20069;-81
2021/05/26 08:46:58;;;;;;;10.30;7.18;;;;;;;11.88;83.51;100539.69;4989618;28;20109;-82
2021/05/26 08:49:27;;;;;;;8.40;5.88;;;;;;;11.86;83.66;100543.56;4992925;28;20050;-82
2021/05/26 08:51:52;;;;;;;11.90;6.78;;;;;;;11.84;82.79;100538.31;4986592;28;20048;-82
2021/05/26 08:54:17;;;;;;;9.27;5.43;;;;;;;11.81;81.24;100529.78;4960957;28;20042;-82
2021/05/26 08:56:44;;;;;;;10.70;5.70;;;;;;;11.88;81.91;100522.69;4974636;28;20039;-81
2021/05/26 08:59:14;;;;;;;8.88;5.28;;;;;;;11.94;81.48;100527.38;4969820;28;20054;-81
2021/05/26 09:01:47;;;;;;;8.65;5.70;;;;;;;11.87;81.88;100519.16;4974198;28;20060;-81
2021/05/26 09:04:33;;;;;;;10.38;5.25;;;;;;;11.93;81.61;100523.81;4986092;28;20042;-82
2021/05/26 09:07:07;;;;;;;8.05;4.07;;;;;;;11.98;79.99;100525.16;4966776;28;20038;-82
2021/05/26 09:09:46;;;;;;;8.15;4.32;;;;;;;12.02;80.36;100521.06;4992738;28;20043;-82
2021/05/26 09:12:13;;;;;;;12.43;4.88;;;;;;;12.00;79.99;100533.84;4976526;28;20100;-82
2021/05/26 09:14:39;;;;;;;8.18;4.85;;;;;;;11.88;80.64;100522.69;4992825;28;20038;-81
2021/05/26 09:17:10;;;;;;;8.43;5.53;;;;;;;11.90;81.38;100516.13;4969818;28;20149;-81
2021/05/26 09:19:37;;;;;;;10.07;5.13;;;;;;;11.80;80.64;100514.69;4987206;28;20487;-82
2021/05/26 09:22:10;;;;;;;9.35;4.50;;;;;;;11.81;79.74;100517.16;4991870;28;20105;-82
2021/05/26 09:24:37;;;;;;;8.35;5.00;;;;;;;11.92;80.68;100508.72;4955254;28;20042;-82
2021/05/26 09:27:08;;;;;;;7.95;4.15;;;;;;;12.08;79.66;100518.50;4981749;28;20038;-81
2021/05/26 09:29:41;;;;;;;7.93;4.35;;;;;;;12.17;78.83;100505.84;4984473;28;20050;-82
2021/05/26 09:32:21;;;;;;;9.07;4.25;;;;;;;12.18;78.74;100499.44;4986079;28;20046;-82
2021/05/26 09:34:55;;;;;;;6.70;3.88;;;;;;;12.12;78.45;100500.16;4986853;28;20096;-81
2021/05/26 09:37:28;;;;;;;6.20;3.60;;;;;;;12.22;80.12;100503.41;4985980;28;20048;-82
2021/05/26 09:40:06;;;;;;;7.93;4.82;;;;;;;12.36;79.64;100499.91;4982878;28;22297;-81
2021/05/26 09:42:45;;;;;;;5.68;3.30;;;;;;;12.46;77.58;100499.69;4972102;28;20050;-82
2021/05/26 09:45:26;;;;;;;8.00;3.30;;;;;;;12.31;77.17;100502.31;4972140;28;20077;-82
2021/05/26 09:47:53;;;;;;;4.60;2.92;;;;;;;12.29;77.39;100499.00;4964591;28;20038;-82
2021/05/26 09:50:33;;;;;;;6.43;3.83;;;;;;;12.38;78.46;100497.88;4988355;28;20134;-82
2021/05/26 09:53:10;;;;;;;6.70;3.33;;;;;;;12.38;77.34;100507.81;4984039;28;20055;-82
2021/05/26 09:55:44;;;;;;;7.22;3.42;;;;;;;12.39;76.77;100499.56;4973770;28;20034;-82
2021/05/26 09:58:11;;;;;;;5.78;3.53;;;;;;;12.45;77.01;100489.91;4969184;28;20051;-83
2021/05/26 10:00:38;;;;;;;6.57;3.78;;;;;;;12.52;76.58;100481.97;4980811;28;20101;-82
2021/05/26 10:03:05;;;;;;;6.75;3.72;;;;;;;12.49;76.73;100496.63;4967260;28;20129;-81
2021/05/26 10:05:31;;;;;;;6.78;4.30;;;;;;;12.55;76.77;100503.94;4988700;28;20038;-82
2021/05/26 10:07:58;;;;;;;7.32;4.53;;;;;;;12.57;74.84;100509.13;4971976;28;20056;-82
2021/05/26 10:10:29;;;;;;;8.05;4.18;;;;;;;12.45;74.21;100499.84;4987565;28;20054;-81
2021/05/26 10:13:02;;;;;;;6.75;4.22;;;;;;;12.37;74.81;100506.13;4984615;28;20128;-81
2021/05/26 10:15:31;;;;;;;7.10;4.15;;;;;;;12.34;75.85;100493.91;4985928;28;20049;-81
2021/05/26 10:17:59;;;;;;;6.82;3.90;;;;;;;12.49;75.59;100498.47;4987501;28;20145;-81
2021/05/26 10:20:37;;;;;;;6.80;3.75;;;;;;;12.70;74.70;100497.75;4974190;28;20073;-82
2021/05/26 10:23:06;;;;;;;4.93;3.90;;;;;;;12.74;74.49;100499.84;4981127;28;20500;-81
2021/05/26 10:25:53;;;;;;;6.88;4.05;;;;;;;12.73;72.42;100497.38;4971826;28;20042;-83
2021/05/26 10:28:31;;;;;;;9.40;4.47;;;;;;;12.52;73.99;100498.09;4951377;28;20070;-82
2021/05/26 10:31:05;;;;;;;7.80;4.32;;;;;;;12.50;74.96;100500.13;4982407;28;20381;-82
2021/05/26 10:33:49;;;;;;;6.47;4.07;;;;;;;12.40;75.38;100498.56;4989175;28;20039;-82
2021/05/26 10:36:15;;;;;;;7.32;4.55;;;;;;;12.50;75.29;100494.75;4971985;28;20054;-81
2021/05/26 10:39:00;;;;;;;7.65;5.28;;;;;;;12.56;73.59;100499.41;4975283;28;20046;-82
2021/05/26 10:41:52;;;;;;;7.53;5.35;;;;;;;12.59;74.45;100499.03;4987372;28;20055;-80
2021/05/26 10:44:19;;;;;;;7.38;5.60;;;;;;;12.74;74.26;100497.16;4957578;28;20054;-82
2021/05/26 10:46:51;;;;;;;7.25;4.78;;;;;;;12.86;73.46;100500.25;4972567;28;20046;-82
2021/05/26 10:49:17;;;;;;;8.30;5.82;;;;;;;12.85;74.12;100494.00;4966672;28;20399;-82
2021/05/26 10:51:52;;;;;;;8.15;5.07;;;;;;;12.91;74.37;100499.69;4974337;28;20045;-81
2021/05/26 10:54:39;;;;;;;8.90;5.80;;;;;;;12.90;72.30;100496.16;4984046;28;20050;-81
2021/05/26 10:57:06;;;;;;;7.53;6.03;;;;;;;13.03;72.27;100490.09;4988774;28;20056;-83
2021/05/26 10:59:32;;;;;;;8.98;6.10;;;;;;;13.30;74.36;100481.34;4986244;28;20462;-81
2021/05/26 11:02:08;;;;;;;10.73;6.80;;;;;;;13.50;73.24;100481.59;4951482;28;20069;-81
2021/05/26 11:04:38;;;;;;;7.28;5.40;;;;;;;13.63;70.71;100480.88;4988230;28;20074;-81
2021/05/26 11:07:24;;;;;;;6.90;5.20;;;;;;;13.76;70.62;100482.88;4982884;28;20122;-82
2021/05/26 11:10:06;;;;;;;6.57;4.90;;;;;;;13.62;69.00;100500.78;4984822;28;20069;-81
2021/05/26 11:12:57;;;;;;;9.50;5.50;;;;;;;13.68;68.62;100491.09;4994596;28;20125;-82
2021/05/26 11:15:44;;;;;;;8.63;5.57;;;;;;;13.58;67.87;100491.41;4979410;28;20100;-82
2021/05/26 11:18:13;;;;;;;9.10;5.40;;;;;;;13.53;69.07;100485.75;4956203;28;20046;-82
2021/05/26 11:20:38;;;;;;;9.73;6.07;;;;;;;13.62;69.99;100486.47;4987004;28;20097;-81
2021/05/26 11:23:15;;;;;;;8.95;5.85;;;;;;;13.88;69.91;100478.63;4969481;28;20435;-81